sensor_id;sensor_type;location;lat;lon;timestamp;temperature;humidity
36206;DHT22;22242;48.796;9.930;2023-03-01T00:02:16;-2.50;99.90
36206;DHT22;22242;48.796;9.930;2023-03-01T00:04:43;-2.60;99.90
36206;DHT22;22242;48.796;9.930;2023-03-01T00:07:12;-2.60;99.90
36206;DHT22;22242;48.796;9.930;2023-03-01T00:09:40;-2.60;99.90
36206;DHT22;22242;48.796;9.930;2023-03-01T00:12:07;-2.60;99.90
36206;DHT22;22242;48.796;9.930;2023-03-01T00:14:35;-2.70;99.90
36206;DHT22;22242;48.796;9.930;2023-03-01T00:17:03;-2.70;99.90
36206;DHT22;22242;48.796;9.930;2023-03-01T00:19:30;-2.60;99.90
36206;DHT22;22242;48.796;9.930;2023-03-01T00:21:58;-2.70;99.90
36206;DHT22;22242;48.796;9.930;2023-03-01T00:24:25;-2.60;99.90
36206;DHT22;22242;48.796;9.930;2023-03-01T00:26:54;-2.70;99.90
36206;DHT22;22242;48.796;9.930;2023-03-01T00:29:23;-2.60;99.90
36206;DHT22;22242;48.796;9.930;2023-03-01T00:31:50;-2.70;99.90
36206;DHT22;22242;48.796;9.930;2023-03-01T00:34:17;-2.60;99.90
36206;DHT22;22242;48.796;9.930;2023-03-01T00:36:45;-2.60;99.90
36206;DHT22;22242;48.796;9.930;2023-03-01T00:39:14;-2.40;99.90
36206;DHT22;22242;48.796;9.930;2023-03-01T00:41:41;-2.30;99.90
36206;DHT22;22242;48.796;9.930;2023-03-01T00:44:10;-2.20;99.90
36206;DHT22;22242;48.796;9.930;2023-03-01T00:46:38;-2.20;99.90
36206;DHT22;22242;48.796;9.930;2023-03-01T00:49:05;-2.20;99.90
36206;DHT22;22242;48.796;9.930;2023-03-01T00:51:32;-2.10;99.90
36206;DHT22;22242;48.796;9.930;2023-03-01T00:54:01;-2.20;99.90
36206;DHT22;22242;48.796;9.930;2023-03-01T00:56:29;-2.20;99.90
36206;DHT22;22242;48.796;9.930;2023-03-01T00:58:56;-2.20;99.90
36206;DHT22;22242;48.796;9.930;2023-03-01T01:01:26;-2.10;99.90
36206;DHT22;22242;48.796;9.930;2023-03-01T01:03:57;-2.10;99.90
36206;DHT22;22242;48.796;9.930;2023-03-01T01:06:27;-2.00;99.90
36206;DHT22;22242;48.796;9.930;2023-03-01T01:08:55;-2.00;99.90
36206;DHT22;22242;48.796;9.930;2023-03-01T01:11:44;-1.90;99.90
36206;DHT22;22242;48.796;9.930;2023-03-01T01:14:13;-1.80;99.90
36206;DHT22;22242;48.796;9.930;2023-03-01T01:16:41;-1.70;99.90
36206;DHT22;22242;48.796;9.930;2023-03-01T01:19:09;-1.70;99.90
36206;DHT22;22242;48.796;9.930;2023-03-01T01:21:37;-1.70;99.90
36206;DHT22;22242;48.796;9.930;2023-03-01T01:24:04;-1.60;99.90
36206;DHT22;22242;48.796;9.930;2023-03-01T01:26:32;-1.60;99.90
36206;DHT22;22242;48.796;9.930;2023-03-01T01:29:02;-1.50;99.90
36206;DHT22;22242;48.796;9.930;2023-03-01T01:31:30;-1.40;99.90
36206;DHT22;22242;48.796;9.930;2023-03-01T01:33:59;-1.40;99.90
36206;DHT22;22242;48.796;9.930;2023-03-01T01:36:27;-1.40;99.90
36206;DHT22;22242;48.796;9.930;2023-03-01T01:38:54;-1.30;99.90
36206;DHT22;22242;48.796;9.930;2023-03-01T01:41:22;-1.30;99.90
36206;DHT22;22242;48.796;9.930;2023-03-01T01:46:32;-1.20;99.90
36206;DHT22;22242;48.796;9.930;2023-03-01T01:49:05;-1.10;99.90
36206;DHT22;22242;48.796;9.930;2023-03-01T01:51:38;-1.10;99.90
36206;DHT22;22242;48.796;9.930;2023-03-01T01:54:10;-1.00;99.90
36206;DHT22;22242;48.796;9.930;2023-03-01T01:56:39;-1.00;99.90
36206;DHT22;22242;48.796;9.930;2023-03-01T01:59:08;-1.00;99.90
36206;DHT22;22242;48.796;9.930;2023-03-01T02:01:37;-1.00;99.90
36206;DHT22;22242;48.796;9.930;2023-03-01T02:04:05;-1.00;99.90
36206;DHT22;22242;48.796;9.930;2023-03-01T02:06:37;-1.00;99.90
36206;DHT22;22242;48.796;9.930;2023-03-01T02:09:08;-1.00;99.90
36206;DHT22;22242;48.796;9.930;2023-03-01T02:11:37;-1.00;99.90
36206;DHT22;22242;48.796;9.930;2023-03-01T02:14:05;-1.00;99.90
36206;DHT22;22242;48.796;9.930;2023-03-01T02:16:32;-1.00;99.90
36206;DHT22;22242;48.796;9.930;2023-03-01T02:19:01;-1.00;99.90
36206;DHT22;22242;48.796;9.930;2023-03-01T02:21:38;-1.10;99.90
36206;DHT22;22242;48.796;9.930;2023-03-01T02:24:12;-1.00;99.90
36206;DHT22;22242;48.796;9.930;2023-03-01T02:26:47;-1.00;99.90
36206;DHT22;22242;48.796;9.930;2023-03-01T02:29:17;-0.90;99.90
36206;DHT22;22242;48.796;9.930;2023-03-01T02:31:44;-0.90;99.90
36206;DHT22;22242;48.796;9.930;2023-03-01T02:34:13;-1.00;99.90
36206;DHT22;22242;48.796;9.930;2023-03-01T02:36:44;-1.00;99.90
36206;DHT22;22242;48.796;9.930;2023-03-01T02:39:16;-0.90;99.90
36206;DHT22;22242;48.796;9.930;2023-03-01T02:41:47;-0.80;99.90
36206;DHT22;22242;48.796;9.930;2023-03-01T02:44:15;-0.80;99.90
36206;DHT22;22242;48.796;9.930;2023-03-01T02:46:45;-0.90;99.90
36206;DHT22;22242;48.796;9.930;2023-03-01T02:49:19;-0.90;99.90
36206;DHT22;22242;48.796;9.930;2023-03-01T02:51:54;-0.90;99.90
36206;DHT22;22242;48.796;9.930;2023-03-01T02:54:26;-0.90;99.90
36206;DHT22;22242;48.796;9.930;2023-03-01T02:56:56;-0.90;99.90
36206;DHT22;22242;48.796;9.930;2023-03-01T02:59:28;-0.90;99.90
36206;DHT22;22242;48.796;9.930;2023-03-01T03:01:57;-0.90;99.90
36206;DHT22;22242;48.796;9.930;2023-03-01T03:04:24;-0.90;99.90
36206;DHT22;22242;48.796;9.930;2023-03-01T03:06:51;-0.90;99.90
36206;DHT22;22242;48.796;9.930;2023-03-01T03:09:19;-0.80;99.90
36206;DHT22;22242;48.796;9.930;2023-03-01T03:11:46;-0.90;99.90
36206;DHT22;22242;48.796;9.930;2023-03-01T03:14:15;-0.90;99.90
36206;DHT22;22242;48.796;9.930;2023-03-01T03:19:21;-0.90;99.90
36206;DHT22;22242;48.796;9.930;2023-03-01T03:21:49;-1.00;99.90
36206;DHT22;22242;48.796;9.930;2023-03-01T03:24:16;-1.00;99.90
36206;DHT22;22242;48.796;9.930;2023-03-01T03:26:44;-1.00;99.90
36206;DHT22;22242;48.796;9.930;2023-03-01T03:29:11;-1.10;99.90
36206;DHT22;22242;48.796;9.930;2023-03-01T03:31:38;-1.10;99.90
36206;DHT22;22242;48.796;9.930;2023-03-01T03:34:05;-1.10;99.90
36206;DHT22;22242;48.796;9.930;2023-03-01T03:36:33;-1.20;99.90
36206;DHT22;22242;48.796;9.930;2023-03-01T03:39:00;-1.20;99.90
36206;DHT22;22242;48.796;9.930;2023-03-01T03:41:27;-1.10;99.90
36206;DHT22;22242;48.796;9.930;2023-03-01T03:43:54;-1.10;99.90
36206;DHT22;22242;48.796;9.930;2023-03-01T03:46:22;-1.10;99.90
36206;DHT22;22242;48.796;9.930;2023-03-01T03:48:49;-1.10;99.90
36206;DHT22;22242;48.796;9.930;2023-03-01T03:51:17;-1.10;99.90
36206;DHT22;22242;48.796;9.930;2023-03-01T03:53:45;-1.20;99.90
36206;DHT22;22242;48.796;9.930;2023-03-01T03:56:13;-1.10;99.90
36206;DHT22;22242;48.796;9.930;2023-03-01T03:58:39;-1.10;99.90
36206;DHT22;22242;48.796;9.930;2023-03-01T04:01:07;-1.10;99.90
36206;DHT22;22242;48.796;9.930;2023-03-01T04:03:34;-1.10;99.90
36206;DHT22;22242;48.796;9.930;2023-03-01T04:06:03;-1.10;99.90
36206;DHT22;22242;48.796;9.930;2023-03-01T04:08:30;-1.10;99.90
36206;DHT22;22242;48.796;9.930;2023-03-01T04:11:01;-1.20;99.90
36206;DHT22;22242;48.796;9.930;2023-03-01T04:13:50;-1.20;99.90
36206;DHT22;22242;48.796;9.930;2023-03-01T04:16:18;-1.10;99.90
36206;DHT22;22242;48.796;9.930;2023-03-01T04:18:45;-1.00;99.90
36206;DHT22;22242;48.796;9.930;2023-03-01T04:21:13;-1.10;99.90
36206;DHT22;22242;48.796;9.930;2023-03-01T04:23:40;-1.10;99.90
36206;DHT22;22242;48.796;9.930;2023-03-01T04:26:09;-1.00;99.90
36206;DHT22;22242;48.796;9.930;2023-03-01T04:28:38;-1.00;99.90
36206;DHT22;22242;48.796;9.930;2023-03-01T04:31:07;-1.00;99.90
36206;DHT22;22242;48.796;9.930;2023-03-01T04:33:40;-1.10;99.90
36206;DHT22;22242;48.796;9.930;2023-03-01T04:36:10;-1.00;99.90
36206;DHT22;22242;48.796;9.930;2023-03-01T04:38:37;-1.00;99.90
36206;DHT22;22242;48.796;9.930;2023-03-01T04:41:05;-1.10;99.90
36206;DHT22;22242;48.796;9.930;2023-03-01T04:43:34;-1.00;99.90
36206;DHT22;22242;48.796;9.930;2023-03-01T04:46:02;-1.00;99.90
36206;DHT22;22242;48.796;9.930;2023-03-01T04:48:30;-1.00;99.90
36206;DHT22;22242;48.796;9.930;2023-03-01T04:50:58;-1.00;99.90
36206;DHT22;22242;48.796;9.930;2023-03-01T04:53:26;-1.00;99.90
36206;DHT22;22242;48.796;9.930;2023-03-01T04:55:54;-1.00;99.90
36206;DHT22;22242;48.796;9.930;2023-03-01T04:58:21;-1.00;99.90
36206;DHT22;22242;48.796;9.930;2023-03-01T05:00:50;-1.00;99.90
36206;DHT22;22242;48.796;9.930;2023-03-01T05:03:17;-1.00;99.90
36206;DHT22;22242;48.796;9.930;2023-03-01T05:05:46;-0.90;99.90
36206;DHT22;22242;48.796;9.930;2023-03-01T05:08:14;-1.00;99.90
36206;DHT22;22242;48.796;9.930;2023-03-01T05:10:45;-0.80;99.90
36206;DHT22;22242;48.796;9.930;2023-03-01T05:13:13;-0.90;99.90
36206;DHT22;22242;48.796;9.930;2023-03-01T05:15:46;-1.00;99.90
36206;DHT22;22242;48.796;9.930;2023-03-01T05:18:15;-1.00;99.90
36206;DHT22;22242;48.796;9.930;2023-03-01T05:20:42;-0.90;99.90
36206;DHT22;22242;48.796;9.930;2023-03-01T05:23:10;-0.90;99.90
36206;DHT22;22242;48.796;9.930;2023-03-01T05:25:37;-0.90;99.90
36206;DHT22;22242;48.796;9.930;2023-03-01T05:28:07;-0.90;99.90
36206;DHT22;22242;48.796;9.930;2023-03-01T05:30:37;-0.90;99.90
36206;DHT22;22242;48.796;9.930;2023-03-01T05:33:05;-0.80;99.90
36206;DHT22;22242;48.796;9.930;2023-03-01T05:35:41;-0.90;99.90
36206;DHT22;22242;48.796;9.930;2023-03-01T05:38:08;-0.90;99.90
36206;DHT22;22242;48.796;9.930;2023-03-01T05:40:39;-0.90;99.90
36206;DHT22;22242;48.796;9.930;2023-03-01T05:43:06;-1.00;99.90
36206;DHT22;22242;48.796;9.930;2023-03-01T05:45:36;-1.10;99.90
36206;DHT22;22242;48.796;9.930;2023-03-01T05:48:05;-1.20;99.90
36206;DHT22;22242;48.796;9.930;2023-03-01T05:50:34;-1.20;99.90
36206;DHT22;22242;48.796;9.930;2023-03-01T05:53:05;-1.30;99.90
36206;DHT22;22242;48.796;9.930;2023-03-01T05:55:34;-1.30;99.90
36206;DHT22;22242;48.796;9.930;2023-03-01T05:58:04;-1.40;99.90
36206;DHT22;22242;48.796;9.930;2023-03-01T06:00:32;-1.50;99.90
36206;DHT22;22242;48.796;9.930;2023-03-01T06:03:00;-1.60;99.90
36206;DHT22;22242;48.796;9.930;2023-03-01T06:05:27;-1.60;99.90
36206;DHT22;22242;48.796;9.930;2023-03-01T06:07:58;-1.60;99.90
36206;DHT22;22242;48.796;9.930;2023-03-01T06:10:27;-1.70;99.90
36206;DHT22;22242;48.796;9.930;2023-03-01T06:12:54;-1.70;99.90
36206;DHT22;22242;48.796;9.930;2023-03-01T06:15:22;-1.60;99.90
36206;DHT22;22242;48.796;9.930;2023-03-01T06:17:50;-1.70;99.90
36206;DHT22;22242;48.796;9.930;2023-03-01T06:20:19;-1.60;99.90
36206;DHT22;22242;48.796;9.930;2023-03-01T06:22:47;-1.70;99.90
36206;DHT22;22242;48.796;9.930;2023-03-01T06:25:17;-1.70;99.90
36206;DHT22;22242;48.796;9.930;2023-03-01T06:27:45;-1.60;99.90
36206;DHT22;22242;48.796;9.930;2023-03-01T06:30:16;-1.60;99.90
36206;DHT22;22242;48.796;9.930;2023-03-01T06:32:43;-1.60;99.90
36206;DHT22;22242;48.796;9.930;2023-03-01T06:35:11;-1.60;99.90
36206;DHT22;22242;48.796;9.930;2023-03-01T06:37:39;-1.60;99.90
36206;DHT22;22242;48.796;9.930;2023-03-01T06:40:08;-1.60;99.90
36206;DHT22;22242;48.796;9.930;2023-03-01T06:42:38;-1.60;99.90
36206;DHT22;22242;48.796;9.930;2023-03-01T06:45:09;-1.70;99.90
36206;DHT22;22242;48.796;9.930;2023-03-01T06:47:36;-1.70;99.90
36206;DHT22;22242;48.796;9.930;2023-03-01T06:50:04;-1.60;99.90
36206;DHT22;22242;48.796;9.930;2023-03-01T06:52:31;-1.70;99.90
36206;DHT22;22242;48.796;9.930;2023-03-01T06:54:58;-1.60;99.90
36206;DHT22;22242;48.796;9.930;2023-03-01T06:57:26;-1.60;99.90
36206;DHT22;22242;48.796;9.930;2023-03-01T06:59:53;-1.60;99.90
36206;DHT22;22242;48.796;9.930;2023-03-01T07:02:21;-1.60;99.90
36206;DHT22;22242;48.796;9.930;2023-03-01T07:04:49;-1.50;99.90
36206;DHT22;22242;48.796;9.930;2023-03-01T07:07:17;-1.40;99.90
36206;DHT22;22242;48.796;9.930;2023-03-01T07:09:44;-1.40;99.90
36206;DHT22;22242;48.796;9.930;2023-03-01T07:12:11;-1.50;99.90
36206;DHT22;22242;48.796;9.930;2023-03-01T07:14:38;-1.40;99.90
36206;DHT22;22242;48.796;9.930;2023-03-01T07:17:05;-1.40;99.90
36206;DHT22;22242;48.796;9.930;2023-03-01T07:19:34;-1.20;99.90
36206;DHT22;22242;48.796;9.930;2023-03-01T07:22:01;-0.40;99.90
36206;DHT22;22242;48.796;9.930;2023-03-01T07:24:30;0.60;99.90
36206;DHT22;22242;48.796;9.930;2023-03-01T07:26:57;1.60;99.90
36206;DHT22;22242;48.796;9.930;2023-03-01T07:29:24;3.00;99.90
36206;DHT22;22242;48.796;9.930;2023-03-01T07:31:51;3.50;99.90
36206;DHT22;22242;48.796;9.930;2023-03-01T07:34:18;3.30;99.90
36206;DHT22;22242;48.796;9.930;2023-03-01T07:36:47;3.60;99.90
36206;DHT22;22242;48.796;9.930;2023-03-01T07:39:14;3.20;99.90
36206;DHT22;22242;48.796;9.930;2023-03-01T07:41:41;4.10;99.90
36206;DHT22;22242;48.796;9.930;2023-03-01T07:44:08;4.30;99.90
36206;DHT22;22242;48.796;9.930;2023-03-01T07:46:35;5.10;99.90
36206;DHT22;22242;48.796;9.930;2023-03-01T07:49:02;4.90;99.90
36206;DHT22;22242;48.796;9.930;2023-03-01T07:51:30;5.40;99.90
36206;DHT22;22242;48.796;9.930;2023-03-01T07:53:58;5.30;99.90
36206;DHT22;22242;48.796;9.930;2023-03-01T07:56:26;5.50;99.90
36206;DHT22;22242;48.796;9.930;2023-03-01T07:58:53;5.30;99.90
36206;DHT22;22242;48.796;9.930;2023-03-01T08:01:22;5.60;98.50
36206;DHT22;22242;48.796;9.930;2023-03-01T08:03:49;5.00;99.90
36206;DHT22;22242;48.796;9.930;2023-03-01T08:06:17;6.10;99.30
36206;DHT22;22242;48.796;9.930;2023-03-01T08:08:45;6.60;97.80
36206;DHT22;22242;48.796;9.930;2023-03-01T08:11:14;6.10;98.20
36206;DHT22;22242;48.796;9.930;2023-03-01T08:13:42;6.60;97.80
36206;DHT22;22242;48.796;9.930;2023-03-01T08:16:11;6.20;97.30
36206;DHT22;22242;48.796;9.930;2023-03-01T08:18:38;7.40;96.00
36206;DHT22;22242;48.796;9.930;2023-03-01T08:21:07;6.90;95.70
36206;DHT22;22242;48.796;9.930;2023-03-01T08:23:35;7.70;94.90
36206;DHT22;22242;48.796;9.930;2023-03-01T08:26:06;8.50;92.60
36206;DHT22;22242;48.796;9.930;2023-03-01T08:28:35;7.10;92.20
36206;DHT22;22242;48.796;9.930;2023-03-01T08:31:03;7.00;94.20
36206;DHT22;22242;48.796;9.930;2023-03-01T08:33:30;8.60;92.10
36206;DHT22;22242;48.796;9.930;2023-03-01T08:36:04;9.40;90.30
36206;DHT22;22242;48.796;9.930;2023-03-01T08:38:32;9.30;87.40
36206;DHT22;22242;48.796;9.930;2023-03-01T08:41:00;9.50;86.20
36206;DHT22;22242;48.796;9.930;2023-03-01T08:43:28;9.50;86.60
36206;DHT22;22242;48.796;9.930;2023-03-01T08:45:56;9.90;82.50
36206;DHT22;22242;48.796;9.930;2023-03-01T08:48:24;10.10;80.70
36206;DHT22;22242;48.796;9.930;2023-03-01T08:50:51;11.00;78.50
36206;DHT22;22242;48.796;9.930;2023-03-01T08:53:18;11.20;76.80
36206;DHT22;22242;48.796;9.930;2023-03-01T08:55:45;11.70;72.10
36206;DHT22;22242;48.796;9.930;2023-03-01T08:58:12;11.00;72.50
36206;DHT22;22242;48.796;9.930;2023-03-01T09:00:39;10.60;72.60
36206;DHT22;22242;48.796;9.930;2023-03-01T09:03:08;11.00;71.70
36206;DHT22;22242;48.796;9.930;2023-03-01T09:05:35;10.90;72.00
36206;DHT22;22242;48.796;9.930;2023-03-01T09:08:02;10.80;70.70
36206;DHT22;22242;48.796;9.930;2023-03-01T09:10:29;9.20;73.40
36206;DHT22;22242;48.796;9.930;2023-03-01T09:12:56;9.80;74.50
36206;DHT22;22242;48.796;9.930;2023-03-01T09:15:24;9.30;74.50
36206;DHT22;22242;48.796;9.930;2023-03-01T09:17:51;9.20;75.00
36206;DHT22;22242;48.796;9.930;2023-03-01T09:20:19;9.70;75.00
36206;DHT22;22242;48.796;9.930;2023-03-01T09:22:47;10.50;70.60
36206;DHT22;22242;48.796;9.930;2023-03-01T09:25:14;10.60;69.60
36206;DHT22;22242;48.796;9.930;2023-03-01T09:27:41;9.80;71.80
36206;DHT22;22242;48.796;9.930;2023-03-01T09:30:09;10.10;71.50
36206;DHT22;22242;48.796;9.930;2023-03-01T09:32:37;10.70;70.80
36206;DHT22;22242;48.796;9.930;2023-03-01T09:35:08;11.00;69.10
36206;DHT22;22242;48.796;9.930;2023-03-01T09:37:37;11.00;68.70
36206;DHT22;22242;48.796;9.930;2023-03-01T09:40:08;10.00;68.20
36206;DHT22;22242;48.796;9.930;2023-03-01T09:42:47;10.50;70.10
36206;DHT22;22242;48.796;9.930;2023-03-01T09:45:26;9.90;70.20
36206;DHT22;22242;48.796;9.930;2023-03-01T09:47:54;10.50;70.40
36206;DHT22;22242;48.796;9.930;2023-03-01T09:50:22;11.30;68.20
36206;DHT22;22242;48.796;9.930;2023-03-01T09:52:58;11.40;67.80
36206;DHT22;22242;48.796;9.930;2023-03-01T09:55:31;11.00;67.30
36206;DHT22;22242;48.796;9.930;2023-03-01T09:58:25;11.30;67.80
36206;DHT22;22242;48.796;9.930;2023-03-01T10:00:51;11.70;67.30
36206;DHT22;22242;48.796;9.930;2023-03-01T10:03:23;11.50;66.60
36206;DHT22;22242;48.796;9.930;2023-03-01T10:05:58;10.30;67.50
36206;DHT22;22242;48.796;9.930;2023-03-01T10:08:31;10.90;69.10
36206;DHT22;22242;48.796;9.930;2023-03-01T10:11:03;10.70;68.20
36206;DHT22;22242;48.796;9.930;2023-03-01T10:13:37;10.50;69.30
36206;DHT22;22242;48.796;9.930;2023-03-01T10:16:13;10.90;70.60
36206;DHT22;22242;48.796;9.930;2023-03-01T10:18:46;11.50;67.20
36206;DHT22;22242;48.796;9.930;2023-03-01T10:21:16;11.30;66.70
36206;DHT22;22242;48.796;9.930;2023-03-01T10:23:46;11.00;66.50
36206;DHT22;22242;48.796;9.930;2023-03-01T10:29:04;10.30;69.10
36206;DHT22;22242;48.796;9.930;2023-03-01T10:31:39;10.60;71.30
36206;DHT22;22242;48.796;9.930;2023-03-01T10:34:11;10.60;70.40
36206;DHT22;22242;48.796;9.930;2023-03-01T10:36:39;10.20;70.00
36206;DHT22;22242;48.796;9.930;2023-03-01T10:39:14;10.30;70.90
36206;DHT22;22242;48.796;9.930;2023-03-01T10:41:58;10.10;71.10
36206;DHT22;22242;48.796;9.930;2023-03-01T10:44:38;10.60;70.30
36206;DHT22;22242;48.796;9.930;2023-03-01T10:47:15;10.20;71.00
36206;DHT22;22242;48.796;9.930;2023-03-01T10:49:55;9.50;71.80
36206;DHT22;22242;48.796;9.930;2023-03-01T10:52:25;9.80;70.90
36206;DHT22;22242;48.796;9.930;2023-03-01T10:54:56;10.40;71.50
36206;DHT22;22242;48.796;9.930;2023-03-01T10:57:33;10.20;71.30
36206;DHT22;22242;48.796;9.930;2023-03-01T11:00:16;9.80;72.40
36206;DHT22;22242;48.796;9.930;2023-03-01T11:02:48;10.40;71.70
36206;DHT22;22242;48.796;9.930;2023-03-01T11:05:21;10.30;71.10
36206;DHT22;22242;48.796;9.930;2023-03-01T11:07:52;10.20;71.80
36206;DHT22;22242;48.796;9.930;2023-03-01T11:10:24;10.50;73.20
36206;DHT22;22242;48.796;9.930;2023-03-01T11:12:53;10.50;71.10
36206;DHT22;22242;48.796;9.930;2023-03-01T11:15:23;9.90;71.30
36206;DHT22;22242;48.796;9.930;2023-03-01T11:17:50;9.90;71.70
36206;DHT22;22242;48.796;9.930;2023-03-01T11:20:24;10.60;73.00
36206;DHT22;22242;48.796;9.930;2023-03-01T11:22:54;10.70;71.20
36206;DHT22;22242;48.796;9.930;2023-03-01T11:25:25;10.30;70.90
36206;DHT22;22242;48.796;9.930;2023-03-01T11:27:54;10.30;71.60
36206;DHT22;22242;48.796;9.930;2023-03-01T11:30:25;9.70;73.80
36206;DHT22;22242;48.796;9.930;2023-03-01T11:33:05;10.10;73.20
36206;DHT22;22242;48.796;9.930;2023-03-01T11:35:41;10.10;73.90
36206;DHT22;22242;48.796;9.930;2023-03-01T11:38:17;10.30;71.70
36206;DHT22;22242;48.796;9.930;2023-03-01T11:40:52;9.80;72.50
36206;DHT22;22242;48.796;9.930;2023-03-01T11:43:25;9.40;75.50
36206;DHT22;22242;48.796;9.930;2023-03-01T11:52:33;9.20;76.50
36206;DHT22;22242;48.796;9.930;2023-03-01T11:55:17;8.90;77.30
36206;DHT22;22242;48.796;9.930;2023-03-01T11:58:03;8.50;78.80
36206;DHT22;22242;48.796;9.930;2023-03-01T12:00:44;8.30;81.20
36206;DHT22;22242;48.796;9.930;2023-03-01T12:03:52;8.30;80.60
36206;DHT22;22242;48.796;9.930;2023-03-01T12:06:42;8.30;81.60
36206;DHT22;22242;48.796;9.930;2023-03-01T12:09:21;8.00;82.80
36206;DHT22;22242;48.796;9.930;2023-03-01T12:12:00;7.70;85.50
36206;DHT22;22242;48.796;9.930;2023-03-01T12:14:52;8.00;83.80
36206;DHT22;22242;48.796;9.930;2023-03-01T12:20:22;7.90;83.80
36206;DHT22;22242;48.796;9.930;2023-03-01T12:23:10;7.40;85.10
36206;DHT22;22242;48.796;9.930;2023-03-01T12:25:46;7.70;85.80
36206;DHT22;22242;48.796;9.930;2023-03-01T12:28:26;8.10;86.20
36206;DHT22;22242;48.796;9.930;2023-03-01T12:31:13;8.10;84.50
36206;DHT22;22242;48.796;9.930;2023-03-01T12:33:50;7.90;84.80
36206;DHT22;22242;48.796;9.930;2023-03-01T12:36:44;8.10;85.60
36206;DHT22;22242;48.796;9.930;2023-03-01T12:39:31;7.30;86.50
36206;DHT22;22242;48.796;9.930;2023-03-01T12:42:04;7.40;88.90
36206;DHT22;22242;48.796;9.930;2023-03-01T12:44:57;7.70;88.60
36206;DHT22;22242;48.796;9.930;2023-03-01T12:47:44;7.40;89.80
36206;DHT22;22242;48.796;9.930;2023-03-01T12:50:18;7.30;89.60
36206;DHT22;22242;48.796;9.930;2023-03-01T12:52:48;7.50;90.30
36206;DHT22;22242;48.796;9.930;2023-03-01T12:55:24;7.20;90.30
36206;DHT22;22242;48.796;9.930;2023-03-01T12:58:00;7.40;90.60
36206;DHT22;22242;48.796;9.930;2023-03-01T13:00:35;7.30;90.70
36206;DHT22;22242;48.796;9.930;2023-03-01T13:03:12;7.30;90.90
36206;DHT22;22242;48.796;9.930;2023-03-01T13:05:49;7.20;90.90
36206;DHT22;22242;48.796;9.930;2023-03-01T13:08:22;7.20;90.80
36206;DHT22;22242;48.796;9.930;2023-03-01T13:10:57;7.10;91.00
36206;DHT22;22242;48.796;9.930;2023-03-01T13:13:26;7.10;91.40
36206;DHT22;22242;48.796;9.930;2023-03-01T13:15:55;7.40;90.90
36206;DHT22;22242;48.796;9.930;2023-03-01T13:18:34;7.30;91.80
36206;DHT22;22242;48.796;9.930;2023-03-01T13:21:05;7.30;91.40
36206;DHT22;22242;48.796;9.930;2023-03-01T13:23:38;7.20;91.70
36206;DHT22;22242;48.796;9.930;2023-03-01T13:26:14;7.10;91.60
36206;DHT22;22242;48.796;9.930;2023-03-01T13:28:54;7.30;92.50
36206;DHT22;22242;48.796;9.930;2023-03-01T13:34:49;7.50;93.10
36206;DHT22;22242;48.796;9.930;2023-03-01T13:37:22;7.60;92.10
36206;DHT22;22242;48.796;9.930;2023-03-01T13:39:51;7.70;91.90
36206;DHT22;22242;48.796;9.930;2023-03-01T13:42:40;7.50;92.00
36206;DHT22;22242;48.796;9.930;2023-03-01T13:45:21;7.20;91.70
36206;DHT22;22242;48.796;9.930;2023-03-01T13:47:56;7.40;92.30
36206;DHT22;22242;48.796;9.930;2023-03-01T13:50:27;7.20;92.50
36206;DHT22;22242;48.796;9.930;2023-03-01T13:52:56;7.10;92.80
36206;DHT22;22242;48.796;9.930;2023-03-01T13:55:30;6.90;92.90
36206;DHT22;22242;48.796;9.930;2023-03-01T13:58:02;7.00;93.10
36206;DHT22;22242;48.796;9.930;2023-03-01T14:00:35;7.10;93.30
36206;DHT22;22242;48.796;9.930;2023-03-01T14:03:05;6.80;92.60
36206;DHT22;22242;48.796;9.930;2023-03-01T14:05:37;7.10;93.60
36206;DHT22;22242;48.796;9.930;2023-03-01T14:08:13;7.20;93.10
36206;DHT22;22242;48.796;9.930;2023-03-01T14:10:53;7.10;92.80
36206;DHT22;22242;48.796;9.930;2023-03-01T14:13:32;7.10;93.20
36206;DHT22;22242;48.796;9.930;2023-03-01T14:16:17;7.30;92.50
36206;DHT22;22242;48.796;9.930;2023-03-01T14:18:53;7.20;93.00
36206;DHT22;22242;48.796;9.930;2023-03-01T14:21:26;6.90;92.70
36206;DHT22;22242;48.796;9.930;2023-03-01T14:23:53;6.90;93.00
36206;DHT22;22242;48.796;9.930;2023-03-01T14:26:21;6.90;93.00
36206;DHT22;22242;48.796;9.930;2023-03-01T14:28:49;7.00;93.30
36206;DHT22;22242;48.796;9.930;2023-03-01T14:31:32;6.90;93.40
36206;DHT22;22242;48.796;9.930;2023-03-01T14:34:01;6.70;93.20
36206;DHT22;22242;48.796;9.930;2023-03-01T14:36:31;6.70;93.30
36206;DHT22;22242;48.796;9.930;2023-03-01T14:38:58;6.80;93.60
36206;DHT22;22242;48.796;9.930;2023-03-01T14:41:32;6.80;93.20
36206;DHT22;22242;48.796;9.930;2023-03-01T14:44:02;6.80;93.40
36206;DHT22;22242;48.796;9.930;2023-03-01T14:46:32;6.80;94.00
36206;DHT22;22242;48.796;9.930;2023-03-01T14:49:03;6.80;93.50
36206;DHT22;22242;48.796;9.930;2023-03-01T14:51:35;6.80;93.80
36206;DHT22;22242;48.796;9.930;2023-03-01T14:54:04;6.90;94.00
36206;DHT22;22242;48.796;9.930;2023-03-01T14:56:44;6.80;93.70
36206;DHT22;22242;48.796;9.930;2023-03-01T14:59:12;6.80;93.60
36206;DHT22;22242;48.796;9.930;2023-03-01T15:01:40;6.80;93.90
36206;DHT22;22242;48.796;9.930;2023-03-01T15:04:11;6.80;93.50
36206;DHT22;22242;48.796;9.930;2023-03-01T15:06:41;6.80;93.80
36206;DHT22;22242;48.796;9.930;2023-03-01T15:09:14;6.80;93.70
36206;DHT22;22242;48.796;9.930;2023-03-01T15:11:42;6.80;93.80
36206;DHT22;22242;48.796;9.930;2023-03-01T15:14:27;6.80;93.90
36206;DHT22;22242;48.796;9.930;2023-03-01T15:16:54;6.80;94.20
36206;DHT22;22242;48.796;9.930;2023-03-01T15:19:24;6.70;94.10
36206;DHT22;22242;48.796;9.930;2023-03-01T15:21:56;6.70;94.50
36206;DHT22;22242;48.796;9.930;2023-03-01T15:24:25;6.70;94.50
36206;DHT22;22242;48.796;9.930;2023-03-01T15:26:56;6.70;94.40
36206;DHT22;22242;48.796;9.930;2023-03-01T15:29:28;6.70;94.50
36206;DHT22;22242;48.796;9.930;2023-03-01T15:31:58;6.70;94.70
36206;DHT22;22242;48.796;9.930;2023-03-01T15:34:27;6.60;94.60
36206;DHT22;22242;48.796;9.930;2023-03-01T15:36:57;6.60;94.90
36206;DHT22;22242;48.796;9.930;2023-03-01T15:39:36;6.60;94.40
36206;DHT22;22242;48.796;9.930;2023-03-01T15:42:11;6.60;94.70
36206;DHT22;22242;48.796;9.930;2023-03-01T15:44:39;6.50;94.70
36206;DHT22;22242;48.796;9.930;2023-03-01T15:47:28;6.50;95.40
36206;DHT22;22242;48.796;9.930;2023-03-01T15:49:56;6.40;95.20
36206;DHT22;22242;48.796;9.930;2023-03-01T15:52:28;6.50;95.50
36206;DHT22;22242;48.796;9.930;2023-03-01T15:54:57;6.40;95.60
36206;DHT22;22242;48.796;9.930;2023-03-01T15:57:24;6.40;95.50
36206;DHT22;22242;48.796;9.930;2023-03-01T15:59:51;6.30;96.10
36206;DHT22;22242;48.796;9.930;2023-03-01T16:02:18;6.30;96.40
36206;DHT22;22242;48.796;9.930;2023-03-01T16:04:47;6.30;96.00
36206;DHT22;22242;48.796;9.930;2023-03-01T16:07:15;6.20;96.30
36206;DHT22;22242;48.796;9.930;2023-03-01T16:09:43;6.20;96.10
36206;DHT22;22242;48.796;9.930;2023-03-01T16:12:14;6.20;96.20
36206;DHT22;22242;48.796;9.930;2023-03-01T16:14:42;6.10;96.00
36206;DHT22;22242;48.796;9.930;2023-03-01T16:17:09;6.10;96.20
36206;DHT22;22242;48.796;9.930;2023-03-01T16:19:36;6.10;96.10
36206;DHT22;22242;48.796;9.930;2023-03-01T16:22:04;6.00;96.10